Nearby METAR Reports

 

KOFF - Offutt Afb/Belle, Nebraska, USA
Distance from station: SE 6mi, 10km
Updated: 11/20/2018 4:56am
Clear
Clear
 Wind from calm
Wind: Calm
Temperature: 18°F , -8°C
Dew Point: 18°F , -8°C
Humidity: 100%
Barometer: 30.32 inHg , 1026.8 hPa
Clouds: Clear
Visibility: 10 miles , 16 km
2018/11/20 10:56 KOFF 201056Z AUTO 00000KT 10SM CLR M08/M08 A3032 RMK AO2 SLP286 T10831084 $
KMLE - Omaha/Millard, Nebraska, USA
Distance from station: W 7mi, 11km
Updated: 11/20/2018 5:35am
Clear
Clear
 Wind from calm
Wind: Calm
Temperature: 19°F , -7°C
Dew Point: 16°F , -9°C
Humidity: 86%
Barometer: 30.33 inHg , 1027.1 hPa
Clouds: Clear
Visibility: 10 miles , 16 km
2018/11/20 11:35 KMLE 201135Z AUTO 00000KT 10SM CLR M07/M09 A3033 RMK AO2 T10711091
 
KOMA - Omaha/Eppley, Nebraska, USA
Distance from station: NNE 10mi, 15km
Updated: 11/20/2018 4:52am
Clear
Clear
 Wind from calm
Wind: Calm
Temperature: 18°F , -8°C
Dew Point: 12°F , -11°C
Humidity: 79%
Barometer: 30.32 inHg , 1026.8 hPa
Clouds: Clear
Visibility: 10 miles , 16 km
2018/11/20 10:52 KOMA 201052Z 00000KT 10SM CLR M08/M11 A3032 RMK AO2 SLP282 I1000 T10831106
KCBF - Council Bluffs, Iowa, USA
Distance from station: ENE 12mi, 20km
Updated: 11/20/2018 5:35am
Clear
Clear
 Wind from calm
Wind: Calm
Temperature: 14°F , -10°C
Dew Point: 14°F , -10°C
Humidity: 100%
Barometer: 30.31 inHg , 1026.4 hPa
Clouds: Clear
Visibility: 10 miles , 16 km
2018/11/20 11:35 KCBF 201135Z AUTO 00000KT 10SM CLR M10/M10 A3031 RMK AO2
 
KBTA - Blair Muni, Nebraska, USA
Distance from station: NNW 17mi, 27km
Updated: 11/20/2018 5:35am
Clear
Clear
 Wind from calm
Wind: Calm
Temperature: 14°F , -10°C
Dew Point: 12°F , -11°C
Humidity: 92%
Barometer: 30.29 inHg , 1025.7 hPa
Clouds: Clear
Visibility: 10 miles , 16 km
2018/11/20 11:35 KBTA 201135Z AUTO 00000KT 10SM CLR M10/M11 A3029 RMK AO2 T10991112
KPMV - Plattsmouth Muni, Nebraska, USA
Distance from station: SSE 17mi, 28km
Updated: 11/20/2018 5:35am
Clear
Clear
 Wind from WSW
Wind: WSW 3 mph , 6 km/h
Temperature: 18°F , -8°C
Dew Point: 16°F , -9°C
Humidity: 93%
Barometer: 30.32 inHg , 1026.8 hPa
Clouds: Clear
Visibility: 10 miles , 16 km
2018/11/20 11:35 KPMV 201135Z AUTO 24003KT 10SM CLR M08/M09 A3032 RMK AO2 T10801091
 
KAHQ - Wahoo, Nebraska, USA
Distance from station: W 32mi, 52km
Updated: 11/20/2018 5:35am
Partly cloudy
Partly cloudy
 Wind from calm
Wind: Calm
Temperature: 18°F , -8°C
Dew Point: 14°F , -10°C
Humidity: 86%
Barometer: 30.31 inHg , 1026.4 hPa
Clouds: Partly cloudy
Visibility: 10 miles , 16 km
Cloud details: Partly cloudy 11000 ft
2018/11/20 11:35 KAHQ 201135Z AUTO 00000KT 10SM SCT110 M08/M10 A3031 RMK AO2 T10831097
KFET - Fremont Muni Arp, Nebraska, USA
Distance from station: WNW 33mi, 53km
Updated: 11/20/2018 5:35am
Clear
Clear
 Wind from calm
Wind: Calm
Temperature: 18°F , -8°C
Dew Point: 14°F , -10°C
Humidity: 86%
Barometer: 30.30 inHg , 1026.1 hPa
Clouds: Clear
Visibility: 10 miles , 16 km
2018/11/20 11:35 KFET 201135Z AUTO 00000KT 10SM CLR M08/M10 A3030 RMK AO2 T10781100 11064 21083
 
KRDK - Red Oak, Iowa, USA
Distance from station: ESE 39mi, 63km
Updated: 11/20/2018 5:35am
Clear
Clear
 Wind from W
Wind: W 5 mph , 7 km/h
Temperature: 14°F , -10°C
Wind Chill: 6°F , -14°C
Dew Point: 12°F , -11°C
Humidity: 92%
Barometer: 30.33 inHg , 1027.1 hPa
Clouds: Clear
Visibility: 10 miles , 16 km
2018/11/20 11:35 KRDK 201135Z AUTO 27004KT 10SM CLR M10/M11 A3033 RMK AO2
KTQE - Tekamah, Nebraska, USA
Distance from station: NNW 41mi, 66km
Updated: 11/20/2018 4:54am
Overcast
Overcast
 Wind from calm
Wind: Calm
Temperature: 14°F , -10°C
Dew Point: 12°F , -11°C
Humidity: 92%
Barometer: 30.32 inHg , 1026.8 hPa
Clouds: Overcast
Visibility: 10 miles , 16 km
Cloud details: Overcast 4700 ft
2018/11/20 10:54 KTQE 201054Z AUTO 00000KT 10SM OVC047 M10/M11 A3032 RMK AO2 SLP280 T11001111
 
KAFK - Nebraska City, Nebraska, USA
Distance from station: S 42mi, 67km
Updated: 11/20/2018 5:35am
Clear
Clear
 Wind from calm
Wind: Calm
Temperature: 19°F , -7°C
Dew Point: 16°F , -9°C
Humidity: 86%
Barometer: 30.32 inHg , 1026.8 hPa
Clouds: Clear
Visibility: 10 miles , 16 km
2018/11/20 11:35 KAFK 201135Z AUTO 00000KT 10SM CLR M07/M09 A3032 RMK AO2 T10751095
KHNR - Harlan Muni, Iowa, USA
Distance from station: NE 43mi, 69km
Updated: 11/20/2018 5:35am

 
2018/11/20 11:35 KHNR 201135Z AUTO RMK AO2 PNO PWINO
 
KSDA - Shenandoah Muni, Iowa, USA
Distance from station: SE 43mi, 69km
Updated: 11/20/2018 5:35am
Clear
Clear
 Wind from SW
Wind: SW 3 mph , 6 km/h
Temperature: 14°F , -10°C
Dew Point: 14°F , -10°C
Humidity: 100%
Barometer: 30.34 inHg , 1027.4 hPa
Clouds: Clear
Visibility: 10 miles , 16 km
2018/11/20 11:35 KSDA 201135Z AUTO 22003KT 10SM CLR M10/M10 A3034 RMK AO2
KLNK - Lincoln, Nebraska, USA
Distance from station: WSW 47mi, 76km
Updated: 11/20/2018 4:54am
Clear
Clear
 Wind from SSE
Wind: SSE 3 mph , 6 km/h
Temperature: 21°F , -6°C
Dew Point: 16°F , -9°C
Humidity: 80%
Barometer: 30.32 inHg , 1026.8 hPa
Clouds: Clear
Visibility: 10 miles , 16 km
2018/11/20 10:54 KLNK 201054Z AUTO 15003KT 10SM CLR M06/M09 A3032 RMK AO2 SLP280 T10561089
 
KAIO - Atlantic, Iowa, USA
Distance from station: ENE 51mi, 82km
Updated: 11/20/2018 5:35am
Clear
Clear
 Wind from calm
Wind: Calm
Temperature: 12°F , -11°C
Dew Point: 12°F , -11°C
Humidity: 100%
Barometer: 30.31 inHg , 1026.4 hPa
Clouds: Clear
Visibility: 10 miles , 16 km
2018/11/20 11:35 KAIO 201135Z AUTO 00000KT 10SM CLR M11/M11 A3031 RMK AO2
KICL - Clarinda, Iowa, USA
Distance from station: ESE 60mi, 97km
Updated: 11/20/2018 5:35am
Clear
Clear
 Wind from calm
Wind: Calm
Temperature: 12°F , -11°C
Dew Point: 10°F , -12°C
Humidity: 92%
Barometer: 30.35 inHg , 1027.8 hPa
Clouds: Clear
Visibility: 7 miles , 11 km
2018/11/20 11:35 KICL 201135Z AUTO 00000KT 7SM CLR M11/M12 A3035 RMK AO2
 
KDNS - Denison, Iowa, USA
Distance from station: NNE 62mi, 100km
Updated: 11/20/2018 5:35am
Overcast
Overcast
 Wind from calm
Wind: Calm
Temperature: 12°F , -11°C
Dew Point: 10°F , -12°C
Humidity: 92%
Barometer: 30.31 inHg , 1026.4 hPa
Clouds: Overcast
Visibility: 10 miles , 16 km
Cloud details: Overcast 3700 ft
2018/11/20 11:35 KDNS 201135Z AUTO 00000KT 10SM OVC037 M11/M12 A3031 RMK AO2
KADU - Audubon, Iowa, USA
Distance from station: ENE 65mi, 105km
Updated: 11/20/2018 5:35am
Overcast
Overcast
 Wind from calm
Wind: Calm
Temperature: 14°F , -10°C
Dew Point: 10°F , -12°C
Humidity: 85%
Barometer: 30.29 inHg , 1025.7 hPa
Clouds: Overcast
Visibility: 7 miles , 11 km
Cloud details: Overcast 500 ft
2018/11/20 11:35 KADU 201135Z AUTO 00000KT 7SM OVC005 M10/M12 A3029 RMK AO2
 
KOLU - Columbus Muni, Nebraska, USA
Distance from station: WNW 71mi, 115km
Updated: 11/20/2018 4:56am

 Wind from SSE
Wind: SSE 5 mph , 7 km/h
Temperature: 19°F , -7°C
Wind Chill: 12°F , -11°C
Dew Point: 16°F , -9°C
Humidity: 86%
Barometer: 30.29 inHg , 1025.7 hPa
Visibility: 10 miles , 16 km
2018/11/20 10:56 KOLU 201056Z AUTO 15004KT 10SM M07/M09 A3029 RMK AO2 SLP278 T10721094 FZRANO $
KBIE - Beatrice Municip, Nebraska, USA
Distance from station: SSW 75mi, 120km
Updated: 11/20/2018 5:35am
Clear
Clear
 Wind from calm
Wind: Calm
Temperature: 25°F , -4°C
Dew Point: 19°F , -7°C
Humidity: 80%
Barometer: 30.31 inHg , 1026.4 hPa
Clouds: Clear
Visibility: 10 miles , 16 km
2018/11/20 11:35 KBIE 201135Z AUTO 00000KT 10SM CLR M04/M07 A3031 RMK AO2 T10421067